sensor_id;sensor_type;location;lat;lon;timestamp;P1;durP1;ratioP1;P2;durP2;ratioP2
19183;SDS011;9724;51.194;6.856;2022-08-21T00:00:31;20.97;;;9.33;;
19183;SDS011;9724;51.194;6.856;2022-08-21T00:03:00;17.90;;;8.93;;
19183;SDS011;9724;51.194;6.856;2022-08-21T00:05:30;18.23;;;10.30;;
19183;SDS011;9724;51.194;6.856;2022-08-21T00:07:58;19.87;;;9.43;;
19183;SDS011;9724;51.194;6.856;2022-08-21T00:10:26;16.47;;;8.60;;
19183;SDS011;9724;51.194;6.856;2022-08-21T00:12:55;15.87;;;8.77;;
19183;SDS011;9724;51.194;6.856;2022-08-21T00:15:24;10.93;;;7.30;;
19183;SDS011;9724;51.194;6.856;2022-08-21T00:17:55;13.23;;;8.03;;
19183;SDS011;9724;51.194;6.856;2022-08-21T00:20:23;13.77;;;7.67;;
19183;SDS011;9724;51.194;6.856;2022-08-21T00:22:51;18.23;;;8.43;;
19183;SDS011;9724;51.194;6.856;2022-08-21T00:25:19;28.00;;;9.03;;
19183;SDS011;9724;51.194;6.856;2022-08-21T00:27:51;16.73;;;9.00;;
19183;SDS011;9724;51.194;6.856;2022-08-21T00:30:21;19.60;;;8.37;;
19183;SDS011;9724;51.194;6.856;2022-08-21T00:32:50;16.53;;;8.90;;
19183;SDS011;9724;51.194;6.856;2022-08-21T00:35:19;15.03;;;8.67;;
19183;SDS011;9724;51.194;6.856;2022-08-21T00:37:49;17.10;;;9.07;;
19183;SDS011;9724;51.194;6.856;2022-08-21T00:40:17;11.10;;;7.57;;
19183;SDS011;9724;51.194;6.856;2022-08-21T00:42:46;15.73;;;8.30;;
19183;SDS011;9724;51.194;6.856;2022-08-21T00:45:21;13.67;;;8.77;;
19183;SDS011;9724;51.194;6.856;2022-08-21T00:47:49;13.33;;;9.53;;
19183;SDS011;9724;51.194;6.856;2022-08-21T00:50:17;17.67;;;10.20;;
19183;SDS011;9724;51.194;6.856;2022-08-21T00:52:48;17.13;;;9.97;;
19183;SDS011;9724;51.194;6.856;2022-08-21T00:55:18;17.23;;;10.63;;
19183;SDS011;9724;51.194;6.856;2022-08-21T00:57:49;17.20;;;10.80;;
19183;SDS011;9724;51.194;6.856;2022-08-21T01:00:22;18.10;;;10.57;;
19183;SDS011;9724;51.194;6.856;2022-08-21T01:02:54;15.93;;;10.00;;
19183;SDS011;9724;51.194;6.856;2022-08-21T01:05:22;17.60;;;10.10;;
19183;SDS011;9724;51.194;6.856;2022-08-21T01:07:49;18.63;;;9.80;;
19183;SDS011;9724;51.194;6.856;2022-08-21T01:10:18;17.83;;;9.50;;
19183;SDS011;9724;51.194;6.856;2022-08-21T01:12:49;20.37;;;9.43;;
19183;SDS011;9724;51.194;6.856;2022-08-21T01:15:18;17.67;;;9.57;;
19183;SDS011;9724;51.194;6.856;2022-08-21T01:17:51;17.70;;;9.50;;
19183;SDS011;9724;51.194;6.856;2022-08-21T01:20:19;16.17;;;9.87;;
19183;SDS011;9724;51.194;6.856;2022-08-21T01:22:59;16.47;;;9.33;;
19183;SDS011;9724;51.194;6.856;2022-08-21T01:25:26;16.90;;;9.77;;
19183;SDS011;9724;51.194;6.856;2022-08-21T01:27:54;19.10;;;9.80;;
19183;SDS011;9724;51.194;6.856;2022-08-21T01:30:23;18.43;;;8.97;;
19183;SDS011;9724;51.194;6.856;2022-08-21T01:32:52;16.37;;;8.83;;
19183;SDS011;9724;51.194;6.856;2022-08-21T01:35:20;20.03;;;9.73;;
19183;SDS011;9724;51.194;6.856;2022-08-21T01:37:48;19.53;;;9.97;;
19183;SDS011;9724;51.194;6.856;2022-08-21T01:40:17;16.50;;;9.43;;
19183;SDS011;9724;51.194;6.856;2022-08-21T01:42:46;17.60;;;9.63;;
19183;SDS011;9724;51.194;6.856;2022-08-21T01:45:15;16.77;;;9.87;;
19183;SDS011;9724;51.194;6.856;2022-08-21T01:47:43;17.70;;;9.17;;
19183;SDS011;9724;51.194;6.856;2022-08-21T01:50:12;16.77;;;9.77;;
19183;SDS011;9724;51.194;6.856;2022-08-21T01:52:42;15.93;;;9.23;;
19183;SDS011;9724;51.194;6.856;2022-08-21T01:55:11;13.27;;;9.27;;
19183;SDS011;9724;51.194;6.856;2022-08-21T01:57:41;19.73;;;10.00;;
19183;SDS011;9724;51.194;6.856;2022-08-21T02:00:10;13.93;;;9.07;;
19183;SDS011;9724;51.194;6.856;2022-08-21T02:02:39;20.13;;;9.30;;
19183;SDS011;9724;51.194;6.856;2022-08-21T02:05:08;16.07;;;9.27;;
19183;SDS011;9724;51.194;6.856;2022-08-21T02:07:37;14.13;;;9.67;;
19183;SDS011;9724;51.194;6.856;2022-08-21T02:10:07;17.23;;;10.47;;
19183;SDS011;9724;51.194;6.856;2022-08-21T02:12:36;14.57;;;9.53;;
19183;SDS011;9724;51.194;6.856;2022-08-21T02:15:07;18.67;;;9.43;;
19183;SDS011;9724;51.194;6.856;2022-08-21T02:17:37;19.20;;;9.70;;
19183;SDS011;9724;51.194;6.856;2022-08-21T02:20:06;14.00;;;9.10;;
19183;SDS011;9724;51.194;6.856;2022-08-21T02:22:34;20.50;;;9.33;;
19183;SDS011;9724;51.194;6.856;2022-08-21T02:25:02;13.23;;;8.97;;
19183;SDS011;9724;51.194;6.856;2022-08-21T02:27:36;16.27;;;10.67;;
19183;SDS011;9724;51.194;6.856;2022-08-21T02:30:07;15.57;;;9.60;;
19183;SDS011;9724;51.194;6.856;2022-08-21T02:32:36;18.77;;;10.40;;
19183;SDS011;9724;51.194;6.856;2022-08-21T02:35:04;19.87;;;9.60;;
19183;SDS011;9724;51.194;6.856;2022-08-21T02:37:33;13.93;;;8.90;;
19183;SDS011;9724;51.194;6.856;2022-08-21T02:40:01;17.03;;;9.73;;
19183;SDS011;9724;51.194;6.856;2022-08-21T02:42:29;19.27;;;9.73;;
19183;SDS011;9724;51.194;6.856;2022-08-21T02:44:56;13.03;;;9.30;;
19183;SDS011;9724;51.194;6.856;2022-08-21T02:47:25;19.17;;;10.70;;
19183;SDS011;9724;51.194;6.856;2022-08-21T02:49:53;22.30;;;9.90;;
19183;SDS011;9724;51.194;6.856;2022-08-21T02:52:21;18.47;;;10.30;;
19183;SDS011;9724;51.194;6.856;2022-08-21T02:54:50;18.13;;;9.80;;
19183;SDS011;9724;51.194;6.856;2022-08-21T02:57:18;17.00;;;10.07;;
19183;SDS011;9724;51.194;6.856;2022-08-21T02:59:45;18.10;;;9.80;;
19183;SDS011;9724;51.194;6.856;2022-08-21T03:02:13;16.20;;;10.20;;
19183;SDS011;9724;51.194;6.856;2022-08-21T03:04:42;16.60;;;10.40;;
19183;SDS011;9724;51.194;6.856;2022-08-21T03:07:12;15.83;;;9.47;;
19183;SDS011;9724;51.194;6.856;2022-08-21T03:09:39;17.33;;;9.80;;
19183;SDS011;9724;51.194;6.856;2022-08-21T03:12:21;15.23;;;9.27;;
19183;SDS011;9724;51.194;6.856;2022-08-21T03:14:49;16.70;;;10.37;;
19183;SDS011;9724;51.194;6.856;2022-08-21T03:17:17;17.43;;;9.60;;
19183;SDS011;9724;51.194;6.856;2022-08-21T03:19:56;14.93;;;9.27;;
19183;SDS011;9724;51.194;6.856;2022-08-21T03:22:24;18.73;;;9.63;;
19183;SDS011;9724;51.194;6.856;2022-08-21T03:24:53;14.67;;;9.90;;
19183;SDS011;9724;51.194;6.856;2022-08-21T03:27:23;19.17;;;10.07;;
19183;SDS011;9724;51.194;6.856;2022-08-21T03:29:54;16.37;;;10.27;;
19183;SDS011;9724;51.194;6.856;2022-08-21T03:32:22;19.80;;;9.50;;
19183;SDS011;9724;51.194;6.856;2022-08-21T03:34:50;18.60;;;10.73;;
19183;SDS011;9724;51.194;6.856;2022-08-21T03:37:19;15.77;;;9.50;;
19183;SDS011;9724;51.194;6.856;2022-08-21T03:39:47;13.33;;;9.30;;
19183;SDS011;9724;51.194;6.856;2022-08-21T03:42:14;14.83;;;10.03;;
19183;SDS011;9724;51.194;6.856;2022-08-21T03:44:42;16.87;;;9.87;;
19183;SDS011;9724;51.194;6.856;2022-08-21T03:47:10;15.07;;;9.23;;
19183;SDS011;9724;51.194;6.856;2022-08-21T03:49:38;18.30;;;9.90;;
19183;SDS011;9724;51.194;6.856;2022-08-21T03:52:06;14.37;;;9.93;;
19183;SDS011;9724;51.194;6.856;2022-08-21T03:54:35;15.83;;;10.03;;
19183;SDS011;9724;51.194;6.856;2022-08-21T03:57:02;17.47;;;9.93;;
19183;SDS011;9724;51.194;6.856;2022-08-21T03:59:30;16.47;;;9.83;;
19183;SDS011;9724;51.194;6.856;2022-08-21T04:01:59;21.47;;;10.20;;
19183;SDS011;9724;51.194;6.856;2022-08-21T04:04:29;19.63;;;10.03;;
19183;SDS011;9724;51.194;6.856;2022-08-21T04:06:58;14.07;;;9.73;;
19183;SDS011;9724;51.194;6.856;2022-08-21T04:09:26;21.33;;;9.93;;
19183;SDS011;9724;51.194;6.856;2022-08-21T04:11:55;14.23;;;9.60;;
19183;SDS011;9724;51.194;6.856;2022-08-21T04:14:23;17.40;;;9.73;;
19183;SDS011;9724;51.194;6.856;2022-08-21T04:16:51;23.07;;;10.20;;
19183;SDS011;9724;51.194;6.856;2022-08-21T04:19:18;17.53;;;10.37;;
19183;SDS011;9724;51.194;6.856;2022-08-21T04:21:46;14.40;;;9.57;;
19183;SDS011;9724;51.194;6.856;2022-08-21T04:24:17;16.87;;;10.00;;
19183;SDS011;9724;51.194;6.856;2022-08-21T04:26:45;19.33;;;10.10;;
19183;SDS011;9724;51.194;6.856;2022-08-21T04:29:14;16.77;;;9.70;;
19183;SDS011;9724;51.194;6.856;2022-08-21T04:31:42;16.33;;;9.67;;
19183;SDS011;9724;51.194;6.856;2022-08-21T04:34:10;14.37;;;9.40;;
19183;SDS011;9724;51.194;6.856;2022-08-21T04:36:38;20.37;;;10.00;;
19183;SDS011;9724;51.194;6.856;2022-08-21T04:39:06;17.63;;;10.07;;
19183;SDS011;9724;51.194;6.856;2022-08-21T04:41:35;15.40;;;9.97;;
19183;SDS011;9724;51.194;6.856;2022-08-21T04:44:03;20.67;;;10.60;;
19183;SDS011;9724;51.194;6.856;2022-08-21T04:46:34;24.07;;;10.17;;
19183;SDS011;9724;51.194;6.856;2022-08-21T04:49:02;22.23;;;10.80;;
19183;SDS011;9724;51.194;6.856;2022-08-21T04:51:32;18.73;;;10.07;;
19183;SDS011;9724;51.194;6.856;2022-08-21T04:54:02;16.70;;;9.77;;
19183;SDS011;9724;51.194;6.856;2022-08-21T04:56:35;19.33;;;10.50;;
19183;SDS011;9724;51.194;6.856;2022-08-21T04:59:05;19.90;;;9.77;;
19183;SDS011;9724;51.194;6.856;2022-08-21T05:01:35;17.23;;;10.27;;
19183;SDS011;9724;51.194;6.856;2022-08-21T05:04:04;15.80;;;9.57;;
19183;SDS011;9724;51.194;6.856;2022-08-21T05:06:33;18.53;;;10.37;;
19183;SDS011;9724;51.194;6.856;2022-08-21T05:09:03;16.17;;;10.37;;
19183;SDS011;9724;51.194;6.856;2022-08-21T05:11:31;16.10;;;10.47;;
19183;SDS011;9724;51.194;6.856;2022-08-21T05:14:01;18.63;;;10.90;;
19183;SDS011;9724;51.194;6.856;2022-08-21T05:16:28;18.03;;;10.57;;
19183;SDS011;9724;51.194;6.856;2022-08-21T05:19:04;18.00;;;9.90;;
19183;SDS011;9724;51.194;6.856;2022-08-21T05:21:32;16.33;;;10.43;;
19183;SDS011;9724;51.194;6.856;2022-08-21T05:24:00;22.43;;;10.23;;
19183;SDS011;9724;51.194;6.856;2022-08-21T05:26:28;18.40;;;10.87;;
19183;SDS011;9724;51.194;6.856;2022-08-21T05:28:57;17.70;;;10.07;;
19183;SDS011;9724;51.194;6.856;2022-08-21T05:31:25;16.57;;;10.57;;
19183;SDS011;9724;51.194;6.856;2022-08-21T05:33:52;19.70;;;10.47;;
19183;SDS011;9724;51.194;6.856;2022-08-21T05:36:22;20.17;;;10.60;;
19183;SDS011;9724;51.194;6.856;2022-08-21T05:38:50;16.40;;;10.17;;
19183;SDS011;9724;51.194;6.856;2022-08-21T05:41:18;19.70;;;10.63;;
19183;SDS011;9724;51.194;6.856;2022-08-21T05:43:46;17.97;;;10.40;;
19183;SDS011;9724;51.194;6.856;2022-08-21T05:46:14;15.10;;;9.07;;
19183;SDS011;9724;51.194;6.856;2022-08-21T05:48:42;16.40;;;8.43;;
19183;SDS011;9724;51.194;6.856;2022-08-21T05:51:10;14.37;;;8.87;;
19183;SDS011;9724;51.194;6.856;2022-08-21T05:53:43;15.70;;;8.73;;
19183;SDS011;9724;51.194;6.856;2022-08-21T05:56:12;15.17;;;8.80;;
19183;SDS011;9724;51.194;6.856;2022-08-21T05:58:40;18.17;;;8.80;;
19183;SDS011;9724;51.194;6.856;2022-08-21T06:01:08;17.27;;;9.23;;
19183;SDS011;9724;51.194;6.856;2022-08-21T06:03:37;14.17;;;8.47;;
19183;SDS011;9724;51.194;6.856;2022-08-21T06:06:06;15.07;;;8.17;;
19183;SDS011;9724;51.194;6.856;2022-08-21T06:08:35;16.67;;;8.67;;
19183;SDS011;9724;51.194;6.856;2022-08-21T06:11:04;16.83;;;8.40;;
19183;SDS011;9724;51.194;6.856;2022-08-21T06:13:33;14.17;;;8.30;;
19183;SDS011;9724;51.194;6.856;2022-08-21T06:16:01;15.07;;;8.13;;
19183;SDS011;9724;51.194;6.856;2022-08-21T06:18:30;16.47;;;8.40;;
19183;SDS011;9724;51.194;6.856;2022-08-21T06:20:58;14.37;;;8.30;;
19183;SDS011;9724;51.194;6.856;2022-08-21T06:23:26;15.30;;;8.23;;
19183;SDS011;9724;51.194;6.856;2022-08-21T06:25:59;15.50;;;8.33;;
19183;SDS011;9724;51.194;6.856;2022-08-21T06:28:28;16.93;;;8.77;;
19183;SDS011;9724;51.194;6.856;2022-08-21T06:30:56;12.20;;;7.83;;
19183;SDS011;9724;51.194;6.856;2022-08-21T06:33:24;13.07;;;7.93;;
19183;SDS011;9724;51.194;6.856;2022-08-21T06:35:57;18.20;;;8.07;;
19183;SDS011;9724;51.194;6.856;2022-08-21T06:38:26;16.03;;;7.57;;
19183;SDS011;9724;51.194;6.856;2022-08-21T06:40:54;15.90;;;8.03;;
19183;SDS011;9724;51.194;6.856;2022-08-21T06:43:23;17.60;;;7.37;;
19183;SDS011;9724;51.194;6.856;2022-08-21T06:46:06;14.30;;;7.50;;
19183;SDS011;9724;51.194;6.856;2022-08-21T06:48:34;17.57;;;7.37;;
19183;SDS011;9724;51.194;6.856;2022-08-21T06:51:02;13.00;;;6.20;;
19183;SDS011;9724;51.194;6.856;2022-08-21T06:53:30;13.03;;;5.03;;
19183;SDS011;9724;51.194;6.856;2022-08-21T06:55:58;10.90;;;4.90;;
19183;SDS011;9724;51.194;6.856;2022-08-21T06:58:26;12.70;;;4.97;;
19183;SDS011;9724;51.194;6.856;2022-08-21T07:00:53;12.03;;;4.93;;
19183;SDS011;9724;51.194;6.856;2022-08-21T07:03:28;11.63;;;4.90;;
19183;SDS011;9724;51.194;6.856;2022-08-21T07:05:57;11.93;;;4.73;;
19183;SDS011;9724;51.194;6.856;2022-08-21T07:08:26;12.57;;;4.50;;
19183;SDS011;9724;51.194;6.856;2022-08-21T07:10:55;9.97;;;4.97;;
19183;SDS011;9724;51.194;6.856;2022-08-21T07:13:23;11.40;;;4.43;;
19183;SDS011;9724;51.194;6.856;2022-08-21T07:15:51;11.40;;;4.47;;
19183;SDS011;9724;51.194;6.856;2022-08-21T07:18:19;15.57;;;4.70;;
19183;SDS011;9724;51.194;6.856;2022-08-21T07:20:48;11.43;;;4.50;;
19183;SDS011;9724;51.194;6.856;2022-08-21T07:23:18;13.60;;;4.43;;
19183;SDS011;9724;51.194;6.856;2022-08-21T07:25:50;10.90;;;4.20;;
19183;SDS011;9724;51.194;6.856;2022-08-21T07:28:18;11.27;;;4.20;;
19183;SDS011;9724;51.194;6.856;2022-08-21T07:30:46;11.00;;;3.70;;
19183;SDS011;9724;51.194;6.856;2022-08-21T07:33:18;5.93;;;3.00;;
19183;SDS011;9724;51.194;6.856;2022-08-21T07:35:45;7.93;;;2.40;;
19183;SDS011;9724;51.194;6.856;2022-08-21T07:38:14;14.63;;;2.97;;
19183;SDS011;9724;51.194;6.856;2022-08-21T07:40:42;4.60;;;2.30;;
19183;SDS011;9724;51.194;6.856;2022-08-21T07:43:10;13.77;;;2.70;;
19183;SDS011;9724;51.194;6.856;2022-08-21T07:45:37;7.50;;;2.50;;
19183;SDS011;9724;51.194;6.856;2022-08-21T07:48:05;10.17;;;2.93;;
19183;SDS011;9724;51.194;6.856;2022-08-21T07:50:33;9.90;;;3.07;;
19183;SDS011;9724;51.194;6.856;2022-08-21T07:53:01;7.00;;;2.50;;
19183;SDS011;9724;51.194;6.856;2022-08-21T07:55:31;7.63;;;2.63;;
19183;SDS011;9724;51.194;6.856;2022-08-21T07:57:59;8.00;;;2.60;;
19183;SDS011;9724;51.194;6.856;2022-08-21T08:00:27;8.17;;;2.63;;
19183;SDS011;9724;51.194;6.856;2022-08-21T08:02:56;4.97;;;2.20;;
19183;SDS011;9724;51.194;6.856;2022-08-21T08:05:26;4.77;;;2.47;;
19183;SDS011;9724;51.194;6.856;2022-08-21T08:07:55;7.37;;;2.20;;
19183;SDS011;9724;51.194;6.856;2022-08-21T08:10:24;8.27;;;2.50;;
19183;SDS011;9724;51.194;6.856;2022-08-21T08:12:54;5.00;;;1.80;;
19183;SDS011;9724;51.194;6.856;2022-08-21T08:15:24;5.13;;;2.17;;
19183;SDS011;9724;51.194;6.856;2022-08-21T08:17:53;9.80;;;2.50;;
19183;SDS011;9724;51.194;6.856;2022-08-21T08:20:21;9.13;;;2.10;;
19183;SDS011;9724;51.194;6.856;2022-08-21T08:22:51;8.03;;;1.97;;
19183;SDS011;9724;51.194;6.856;2022-08-21T08:25:20;3.73;;;1.80;;
19183;SDS011;9724;51.194;6.856;2022-08-21T08:27:49;4.87;;;1.87;;
19183;SDS011;9724;51.194;6.856;2022-08-21T08:30:18;5.07;;;1.63;;
19183;SDS011;9724;51.194;6.856;2022-08-21T08:32:47;5.53;;;2.10;;
19183;SDS011;9724;51.194;6.856;2022-08-21T08:35:15;6.70;;;1.97;;
19183;SDS011;9724;51.194;6.856;2022-08-21T08:37:43;6.80;;;1.87;;
19183;SDS011;9724;51.194;6.856;2022-08-21T08:40:18;4.67;;;2.10;;
19183;SDS011;9724;51.194;6.856;2022-08-21T08:42:48;10.20;;;2.57;;
19183;SDS011;9724;51.194;6.856;2022-08-21T08:45:18;6.97;;;2.17;;
19183;SDS011;9724;51.194;6.856;2022-08-21T08:47:50;8.50;;;2.10;;
19183;SDS011;9724;51.194;6.856;2022-08-21T08:50:26;4.60;;;1.57;;
19183;SDS011;9724;51.194;6.856;2022-08-21T08:52:58;7.50;;;2.00;;
19183;SDS011;9724;51.194;6.856;2022-08-21T08:55:32;9.37;;;2.00;;
19183;SDS011;9724;51.194;6.856;2022-08-21T08:58:01;5.03;;;1.80;;
19183;SDS011;9724;51.194;6.856;2022-08-21T09:00:31;2.53;;;1.60;;
19183;SDS011;9724;51.194;6.856;2022-08-21T09:03:00;6.07;;;1.90;;
19183;SDS011;9724;51.194;6.856;2022-08-21T09:05:30;6.37;;;1.93;;
19183;SDS011;9724;51.194;6.856;2022-08-21T09:08:11;5.77;;;1.80;;
19183;SDS011;9724;51.194;6.856;2022-08-21T09:10:46;3.20;;;1.30;;
19183;SDS011;9724;51.194;6.856;2022-08-21T09:13:21;3.60;;;1.17;;
19183;SDS011;9724;51.194;6.856;2022-08-21T09:15:56;5.67;;;1.57;;
19183;SDS011;9724;51.194;6.856;2022-08-21T09:18:32;6.03;;;1.33;;
19183;SDS011;9724;51.194;6.856;2022-08-21T09:21:09;4.00;;;1.37;;
19183;SDS011;9724;51.194;6.856;2022-08-21T09:23:43;2.77;;;1.23;;
19183;SDS011;9724;51.194;6.856;2022-08-21T09:26:18;3.37;;;1.50;;
19183;SDS011;9724;51.194;6.856;2022-08-21T09:28:48;2.47;;;1.37;;
19183;SDS011;9724;51.194;6.856;2022-08-21T09:31:23;4.20;;;1.40;;
19183;SDS011;9724;51.194;6.856;2022-08-21T09:33:57;3.70;;;1.50;;
19183;SDS011;9724;51.194;6.856;2022-08-21T09:36:28;5.20;;;1.70;;
19183;SDS011;9724;51.194;6.856;2022-08-21T09:39:01;2.70;;;1.47;;
19183;SDS011;9724;51.194;6.856;2022-08-21T09:41:30;3.90;;;1.57;;
19183;SDS011;9724;51.194;6.856;2022-08-21T09:44:01;4.43;;;1.63;;
19183;SDS011;9724;51.194;6.856;2022-08-21T09:46:30;6.47;;;1.60;;
19183;SDS011;9724;51.194;6.856;2022-08-21T09:48:59;4.10;;;1.70;;
19183;SDS011;9724;51.194;6.856;2022-08-21T09:51:33;3.17;;;1.70;;
19183;SDS011;9724;51.194;6.856;2022-08-21T09:54:10;5.23;;;1.70;;
19183;SDS011;9724;51.194;6.856;2022-08-21T09:56:51;4.93;;;1.40;;
19183;SDS011;9724;51.194;6.856;2022-08-21T09:59:37;8.13;;;2.23;;
19183;SDS011;9724;51.194;6.856;2022-08-21T10:02:18;3.07;;;1.50;;
19183;SDS011;9724;51.194;6.856;2022-08-21T10:04:50;6.80;;;1.80;;
19183;SDS011;9724;51.194;6.856;2022-08-21T10:07:20;5.38;;;1.95;;
19183;SDS011;9724;51.194;6.856;2022-08-21T10:09:58;5.33;;;1.83;;
19183;SDS011;9724;51.194;6.856;2022-08-21T10:12:33;5.30;;;2.08;;
19183;SDS011;9724;51.194;6.856;2022-08-21T10:15:10;6.57;;;1.95;;
19183;SDS011;9724;51.194;6.856;2022-08-21T10:17:47;4.05;;;1.73;;
19183;SDS011;9724;51.194;6.856;2022-08-21T10:20:21;5.35;;;1.80;;
19183;SDS011;9724;51.194;6.856;2022-08-21T10:22:53;3.22;;;1.80;;
19183;SDS011;9724;51.194;6.856;2022-08-21T10:25:31;8.82;;;1.65;;
19183;SDS011;9724;51.194;6.856;2022-08-21T10:28:02;5.20;;;2.05;;
19183;SDS011;9724;51.194;6.856;2022-08-21T10:30:52;6.68;;;2.22;;
19183;SDS011;9724;51.194;6.856;2022-08-21T10:33:30;5.90;;;1.38;;
19183;SDS011;9724;51.194;6.856;2022-08-21T10:36:08;2.90;;;1.50;;
19183;SDS011;9724;51.194;6.856;2022-08-21T10:41:46;3.83;;;1.60;;
19183;SDS011;9724;51.194;6.856;2022-08-21T10:44:30;13.18;;;2.10;;
19183;SDS011;9724;51.194;6.856;2022-08-21T10:47:05;4.05;;;1.50;;
19183;SDS011;9724;51.194;6.856;2022-08-21T10:49:38;6.23;;;1.73;;
19183;SDS011;9724;51.194;6.856;2022-08-21T10:52:13;4.93;;;1.80;;
19183;SDS011;9724;51.194;6.856;2022-08-21T10:54:52;5.53;;;1.73;;
19183;SDS011;9724;51.194;6.856;2022-08-21T10:57:23;6.57;;;1.63;;
19183;SDS011;9724;51.194;6.856;2022-08-21T11:00:00;4.43;;;1.67;;
19183;SDS011;9724;51.194;6.856;2022-08-21T11:02:32;3.90;;;1.70;;
19183;SDS011;9724;51.194;6.856;2022-08-21T11:05:05;3.90;;;1.70;;
19183;SDS011;9724;51.194;6.856;2022-08-21T11:07:36;4.03;;;1.60;;
19183;SDS011;9724;51.194;6.856;2022-08-21T11:10:08;5.67;;;1.73;;
19183;SDS011;9724;51.194;6.856;2022-08-21T11:12:41;3.17;;;1.53;;
19183;SDS011;9724;51.194;6.856;2022-08-21T11:15:16;4.63;;;1.48;;
19183;SDS011;9724;51.194;6.856;2022-08-21T11:17:59;9.20;;;1.50;;
19183;SDS011;9724;51.194;6.856;2022-08-21T11:20:32;5.63;;;1.80;;
19183;SDS011;9724;51.194;6.856;2022-08-21T11:23:11;6.07;;;1.60;;
19183;SDS011;9724;51.194;6.856;2022-08-21T11:25:44;5.63;;;1.70;;
19183;SDS011;9724;51.194;6.856;2022-08-21T11:28:15;6.03;;;1.75;;
19183;SDS011;9724;51.194;6.856;2022-08-21T11:30:48;5.68;;;1.73;;
19183;SDS011;9724;51.194;6.856;2022-08-21T11:33:26;4.82;;;1.42;;
19183;SDS011;9724;51.194;6.856;2022-08-21T11:36:06;4.35;;;1.30;;
19183;SDS011;9724;51.194;6.856;2022-08-21T11:38:39;5.90;;;1.65;;
19183;SDS011;9724;51.194;6.856;2022-08-21T11:41:11;5.57;;;1.40;;
19183;SDS011;9724;51.194;6.856;2022-08-21T11:43:45;5.45;;;1.40;;
19183;SDS011;9724;51.194;6.856;2022-08-21T11:46:17;2.33;;;1.30;;
19183;SDS011;9724;51.194;6.856;2022-08-21T11:48:56;5.75;;;1.63;;
19183;SDS011;9724;51.194;6.856;2022-08-21T11:51:32;6.35;;;1.40;;
19183;SDS011;9724;51.194;6.856;2022-08-21T11:54:03;3.38;;;1.23;;
19183;SDS011;9724;51.194;6.856;2022-08-21T11:56:33;3.55;;;1.27;;
19183;SDS011;9724;51.194;6.856;2022-08-21T11:59:05;2.67;;;1.75;;
19183;SDS011;9724;51.194;6.856;2022-08-21T12:01:36;4.25;;;1.58;;
19183;SDS011;9724;51.194;6.856;2022-08-21T12:04:08;2.30;;;1.65;;
19183;SDS011;9724;51.194;6.856;2022-08-21T12:06:40;3.88;;;1.35;;
19183;SDS011;9724;51.194;6.856;2022-08-21T12:09:10;4.85;;;1.52;;
19183;SDS011;9724;51.194;6.856;2022-08-21T12:12:00;3.22;;;1.38;;
19183;SDS011;9724;51.194;6.856;2022-08-21T12:14:39;6.05;;;1.70;;
19183;SDS011;9724;51.194;6.856;2022-08-21T12:17:09;4.70;;;1.35;;
19183;SDS011;9724;51.194;6.856;2022-08-21T12:19:56;6.53;;;1.35;;
19183;SDS011;9724;51.194;6.856;2022-08-21T12:22:37;6.03;;;1.67;;
19183;SDS011;9724;51.194;6.856;2022-08-21T12:25:08;5.70;;;1.42;;
19183;SDS011;9724;51.194;6.856;2022-08-21T12:27:41;3.05;;;1.60;;
19183;SDS011;9724;51.194;6.856;2022-08-21T12:30:21;4.32;;;1.50;;
19183;SDS011;9724;51.194;6.856;2022-08-21T12:32:56;2.53;;;1.40;;
19183;SDS011;9724;51.194;6.856;2022-08-21T12:35:26;6.90;;;1.65;;
19183;SDS011;9724;51.194;6.856;2022-08-21T12:38:01;3.13;;;1.60;;
19183;SDS011;9724;51.194;6.856;2022-08-21T12:40:37;3.80;;;1.38;;
19183;SDS011;9724;51.194;6.856;2022-08-21T12:43:11;4.72;;;1.77;;
19183;SDS011;9724;51.194;6.856;2022-08-21T12:45:42;4.55;;;1.70;;
19183;SDS011;9724;51.194;6.856;2022-08-21T12:48:14;3.63;;;1.35;;
19183;SDS011;9724;51.194;6.856;2022-08-21T12:50:50;4.60;;;1.50;;
19183;SDS011;9724;51.194;6.856;2022-08-21T12:53:23;4.95;;;1.48;;
19183;SDS011;9724;51.194;6.856;2022-08-21T12:55:54;7.40;;;1.70;;
19183;SDS011;9724;51.194;6.856;2022-08-21T12:58:27;2.05;;;1.17;;
19183;SDS011;9724;51.194;6.856;2022-08-21T13:00:56;4.40;;;1.52;;
19183;SDS011;9724;51.194;6.856;2022-08-21T13:03:27;3.60;;;1.48;;
19183;SDS011;9724;51.194;6.856;2022-08-21T13:05:55;5.97;;;2.00;;
19183;SDS011;9724;51.194;6.856;2022-08-21T13:08:24;4.33;;;1.60;;
19183;SDS011;9724;51.194;6.856;2022-08-21T13:10:56;5.07;;;1.55;;
19183;SDS011;9724;51.194;6.856;2022-08-21T13:13:39;3.83;;;1.30;;
19183;SDS011;9724;51.194;6.856;2022-08-21T13:16:18;5.50;;;1.42;;
19183;SDS011;9724;51.194;6.856;2022-08-21T13:18:55;7.57;;;1.40;;
19183;SDS011;9724;51.194;6.856;2022-08-21T13:21:27;2.38;;;1.35;;
19183;SDS011;9724;51.194;6.856;2022-08-21T13:27:02;3.33;;;1.33;;
19183;SDS011;9724;51.194;6.856;2022-08-21T13:29:46;2.47;;;1.10;;
19183;SDS011;9724;51.194;6.856;2022-08-21T13:32:22;5.30;;;1.10;;
19183;SDS011;9724;51.194;6.856;2022-08-21T13:34:52;2.88;;;1.40;;
19183;SDS011;9724;51.194;6.856;2022-08-21T13:37:20;2.33;;;1.10;;
19183;SDS011;9724;51.194;6.856;2022-08-21T13:39:51;5.28;;;1.42;;
19183;SDS011;9724;51.194;6.856;2022-08-21T13:42:19;1.20;;;1.07;;
19183;SDS011;9724;51.194;6.856;2022-08-21T13:44:48;1.93;;;1.20;;
19183;SDS011;9724;51.194;6.856;2022-08-21T13:47:19;2.57;;;1.20;;
19183;SDS011;9724;51.194;6.856;2022-08-21T13:49:48;3.30;;;1.53;;
19183;SDS011;9724;51.194;6.856;2022-08-21T13:52:24;4.32;;;1.23;;
19183;SDS011;9724;51.194;6.856;2022-08-21T13:54:55;3.85;;;1.60;;
19183;SDS011;9724;51.194;6.856;2022-08-21T13:57:25;3.92;;;1.23;;
19183;SDS011;9724;51.194;6.856;2022-08-21T14:00:09;6.15;;;1.20;;
19183;SDS011;9724;51.194;6.856;2022-08-21T14:02:39;4.65;;;1.30;;
19183;SDS011;9724;51.194;6.856;2022-08-21T14:05:13;1.20;;;0.93;;
19183;SDS011;9724;51.194;6.856;2022-08-21T14:07:43;3.05;;;1.30;;
19183;SDS011;9724;51.194;6.856;2022-08-21T14:10:13;4.22;;;1.52;;
19183;SDS011;9724;51.194;6.856;2022-08-21T14:12:45;3.50;;;1.33;;
19183;SDS011;9724;51.194;6.856;2022-08-21T14:15:15;1.80;;;1.20;;
19183;SDS011;9724;51.194;6.856;2022-08-21T14:17:45;1.92;;;1.27;;
19183;SDS011;9724;51.194;6.856;2022-08-21T14:20:25;1.80;;;1.23;;
19183;SDS011;9724;51.194;6.856;2022-08-21T14:22:54;4.68;;;1.40;;
19183;SDS011;9724;51.194;6.856;2022-08-21T14:25:28;5.53;;;1.52;;
19183;SDS011;9724;51.194;6.856;2022-08-21T14:27:59;3.00;;;1.40;;
19183;SDS011;9724;51.194;6.856;2022-08-21T14:30:36;1.83;;;1.25;;
19183;SDS011;9724;51.194;6.856;2022-08-21T14:33:08;1.85;;;1.38;;
19183;SDS011;9724;51.194;6.856;2022-08-21T14:35:38;4.97;;;1.30;;
19183;SDS011;9724;51.194;6.856;2022-08-21T14:38:11;2.75;;;1.20;;
19183;SDS011;9724;51.194;6.856;2022-08-21T14:40:41;4.27;;;1.50;;
19183;SDS011;9724;51.194;6.856;2022-08-21T14:43:09;2.55;;;1.38;;
19183;SDS011;9724;51.194;6.856;2022-08-21T14:45:37;2.75;;;1.20;;
19183;SDS011;9724;51.194;6.856;2022-08-21T14:48:07;2.60;;;1.50;;
19183;SDS011;9724;51.194;6.856;2022-08-21T14:50:35;2.45;;;1.70;;
19183;SDS011;9724;51.194;6.856;2022-08-21T14:53:03;2.20;;;1.30;;
19183;SDS011;9724;51.194;6.856;2022-08-21T14:55:36;3.90;;;1.50;;
19183;SDS011;9724;51.194;6.856;2022-08-21T14:58:20;4.50;;;1.53;;
19183;SDS011;9724;51.194;6.856;2022-08-21T15:00:51;3.05;;;1.50;;
19183;SDS011;9724;51.194;6.856;2022-08-21T15:03:19;1.90;;;1.40;;
19183;SDS011;9724;51.194;6.856;2022-08-21T15:05:48;2.25;;;1.35;;
19183;SDS011;9724;51.194;6.856;2022-08-21T15:08:16;2.92;;;1.42;;
19183;SDS011;9724;51.194;6.856;2022-08-21T15:10:44;3.03;;;1.33;;
19183;SDS011;9724;51.194;6.856;2022-08-21T15:13:33;6.95;;;1.30;;
19183;SDS011;9724;51.194;6.856;2022-08-21T15:16:01;3.17;;;1.25;;
19183;SDS011;9724;51.194;6.856;2022-08-21T15:18:29;3.13;;;1.53;;
19183;SDS011;9724;51.194;6.856;2022-08-21T15:20:57;5.83;;;1.80;;